sensor_id;sensor_type;location;lat;lon;timestamp;P1;durP1;ratioP1;P2;durP2;ratioP2
19830;SDS011;10076;52.008;4.708;2023-05-07T00:00:32;19.10;;;9.70;;
19830;SDS011;10076;52.008;4.708;2023-05-07T00:02:59;16.75;;;8.40;;
19830;SDS011;10076;52.008;4.708;2023-05-07T00:05:24;15.70;;;9.10;;
19830;SDS011;10076;52.008;4.708;2023-05-07T00:07:49;18.42;;;9.05;;
19830;SDS011;10076;52.008;4.708;2023-05-07T00:10:15;17.13;;;8.95;;
19830;SDS011;10076;52.008;4.708;2023-05-07T00:12:40;17.70;;;8.77;;
19830;SDS011;10076;52.008;4.708;2023-05-07T00:15:06;18.02;;;9.30;;
19830;SDS011;10076;52.008;4.708;2023-05-07T00:17:32;16.58;;;9.07;;
19830;SDS011;10076;52.008;4.708;2023-05-07T00:19:58;16.95;;;8.98;;
19830;SDS011;10076;52.008;4.708;2023-05-07T00:22:23;15.48;;;8.45;;
19830;SDS011;10076;52.008;4.708;2023-05-07T00:24:48;17.77;;;9.02;;
19830;SDS011;10076;52.008;4.708;2023-05-07T00:27:14;17.67;;;9.77;;
19830;SDS011;10076;52.008;4.708;2023-05-07T00:29:39;15.35;;;8.77;;
19830;SDS011;10076;52.008;4.708;2023-05-07T00:32:04;16.88;;;9.18;;
19830;SDS011;10076;52.008;4.708;2023-05-07T00:34:30;18.67;;;9.90;;
19830;SDS011;10076;52.008;4.708;2023-05-07T00:36:55;18.85;;;9.95;;
19830;SDS011;10076;52.008;4.708;2023-05-07T00:39:20;21.15;;;10.10;;
19830;SDS011;10076;52.008;4.708;2023-05-07T00:41:45;17.25;;;10.05;;
19830;SDS011;10076;52.008;4.708;2023-05-07T00:44:12;22.15;;;9.85;;
19830;SDS011;10076;52.008;4.708;2023-05-07T00:46:37;20.63;;;10.52;;
19830;SDS011;10076;52.008;4.708;2023-05-07T00:49:03;20.75;;;10.70;;
19830;SDS011;10076;52.008;4.708;2023-05-07T00:51:28;23.50;;;11.65;;
19830;SDS011;10076;52.008;4.708;2023-05-07T00:53:54;22.45;;;10.65;;
19830;SDS011;10076;52.008;4.708;2023-05-07T00:56:20;18.95;;;10.00;;
19830;SDS011;10076;52.008;4.708;2023-05-07T00:58:47;19.85;;;10.23;;
19830;SDS011;10076;52.008;4.708;2023-05-07T01:01:13;21.45;;;10.23;;
19830;SDS011;10076;52.008;4.708;2023-05-07T01:03:38;22.45;;;11.25;;
19830;SDS011;10076;52.008;4.708;2023-05-07T01:06:03;20.23;;;10.65;;
19830;SDS011;10076;52.008;4.708;2023-05-07T01:08:30;19.20;;;10.93;;
19830;SDS011;10076;52.008;4.708;2023-05-07T01:10:57;22.90;;;11.52;;
19830;SDS011;10076;52.008;4.708;2023-05-07T01:13:23;20.42;;;11.48;;
19830;SDS011;10076;52.008;4.708;2023-05-07T01:15:49;21.45;;;10.77;;
19830;SDS011;10076;52.008;4.708;2023-05-07T01:18:15;23.92;;;11.85;;
19830;SDS011;10076;52.008;4.708;2023-05-07T01:20:41;19.45;;;11.60;;
19830;SDS011;10076;52.008;4.708;2023-05-07T01:23:06;22.58;;;11.88;;
19830;SDS011;10076;52.008;4.708;2023-05-07T01:25:32;22.90;;;11.35;;
19830;SDS011;10076;52.008;4.708;2023-05-07T01:27:57;21.48;;;11.82;;
19830;SDS011;10076;52.008;4.708;2023-05-07T01:30:24;20.10;;;11.88;;
19830;SDS011;10076;52.008;4.708;2023-05-07T01:32:51;18.60;;;10.50;;
19830;SDS011;10076;52.008;4.708;2023-05-07T01:35:22;22.77;;;10.80;;
19830;SDS011;10076;52.008;4.708;2023-05-07T01:37:51;22.65;;;11.57;;
19830;SDS011;10076;52.008;4.708;2023-05-07T01:40:18;18.60;;;11.43;;
19830;SDS011;10076;52.008;4.708;2023-05-07T01:42:44;21.55;;;10.88;;
19830;SDS011;10076;52.008;4.708;2023-05-07T01:45:10;20.27;;;10.98;;
19830;SDS011;10076;52.008;4.708;2023-05-07T01:47:37;21.52;;;11.20;;
19830;SDS011;10076;52.008;4.708;2023-05-07T01:50:04;19.02;;;10.35;;
19830;SDS011;10076;52.008;4.708;2023-05-07T01:52:31;19.65;;;11.45;;
19830;SDS011;10076;52.008;4.708;2023-05-07T01:54:56;16.98;;;9.95;;
19830;SDS011;10076;52.008;4.708;2023-05-07T01:57:21;18.13;;;10.70;;
19830;SDS011;10076;52.008;4.708;2023-05-07T01:59:47;16.30;;;10.43;;
19830;SDS011;10076;52.008;4.708;2023-05-07T02:02:12;16.80;;;10.20;;
19830;SDS011;10076;52.008;4.708;2023-05-07T02:04:37;18.38;;;10.02;;
19830;SDS011;10076;52.008;4.708;2023-05-07T02:07:03;14.93;;;10.15;;
19830;SDS011;10076;52.008;4.708;2023-05-07T02:09:28;17.33;;;9.77;;
19830;SDS011;10076;52.008;4.708;2023-05-07T02:11:53;17.42;;;10.00;;
19830;SDS011;10076;52.008;4.708;2023-05-07T02:14:18;17.70;;;10.25;;
19830;SDS011;10076;52.008;4.708;2023-05-07T02:16:45;17.92;;;10.35;;
19830;SDS011;10076;52.008;4.708;2023-05-07T02:19:10;17.50;;;9.82;;
19830;SDS011;10076;52.008;4.708;2023-05-07T02:21:35;14.23;;;9.35;;
19830;SDS011;10076;52.008;4.708;2023-05-07T02:24:01;13.60;;;8.98;;
19830;SDS011;10076;52.008;4.708;2023-05-07T02:26:26;14.77;;;9.23;;
19830;SDS011;10076;52.008;4.708;2023-05-07T02:28:51;12.55;;;8.18;;
19830;SDS011;10076;52.008;4.708;2023-05-07T02:31:17;14.95;;;9.15;;
19830;SDS011;10076;52.008;4.708;2023-05-07T02:33:42;14.90;;;9.10;;
19830;SDS011;10076;52.008;4.708;2023-05-07T02:36:08;18.70;;;9.30;;
19830;SDS011;10076;52.008;4.708;2023-05-07T02:38:34;15.20;;;9.20;;
19830;SDS011;10076;52.008;4.708;2023-05-07T02:40:59;13.15;;;9.38;;
19830;SDS011;10076;52.008;4.708;2023-05-07T02:43:25;15.57;;;9.57;;
19830;SDS011;10076;52.008;4.708;2023-05-07T02:45:59;13.82;;;9.40;;
19830;SDS011;10076;52.008;4.708;2023-05-07T02:48:32;14.02;;;8.60;;
19830;SDS011;10076;52.008;4.708;2023-05-07T02:50:58;15.30;;;9.35;;
19830;SDS011;10076;52.008;4.708;2023-05-07T02:53:24;13.30;;;8.43;;
19830;SDS011;10076;52.008;4.708;2023-05-07T02:55:54;15.40;;;8.82;;
19830;SDS011;10076;52.008;4.708;2023-05-07T02:58:21;13.30;;;9.32;;
19830;SDS011;10076;52.008;4.708;2023-05-07T03:00:46;14.13;;;8.88;;
19830;SDS011;10076;52.008;4.708;2023-05-07T03:03:12;16.83;;;9.45;;
19830;SDS011;10076;52.008;4.708;2023-05-07T03:05:38;12.13;;;8.45;;
19830;SDS011;10076;52.008;4.708;2023-05-07T03:08:03;12.82;;;8.35;;
19830;SDS011;10076;52.008;4.708;2023-05-07T03:10:29;12.55;;;8.48;;
19830;SDS011;10076;52.008;4.708;2023-05-07T03:12:55;13.23;;;8.25;;
19830;SDS011;10076;52.008;4.708;2023-05-07T03:15:20;11.63;;;8.52;;
19830;SDS011;10076;52.008;4.708;2023-05-07T03:17:46;11.75;;;7.60;;
19830;SDS011;10076;52.008;4.708;2023-05-07T03:20:12;13.05;;;8.52;;
19830;SDS011;10076;52.008;4.708;2023-05-07T03:22:38;11.82;;;7.93;;
19830;SDS011;10076;52.008;4.708;2023-05-07T03:25:03;11.25;;;7.15;;
19830;SDS011;10076;52.008;4.708;2023-05-07T03:27:29;12.50;;;7.80;;
19830;SDS011;10076;52.008;4.708;2023-05-07T03:29:54;10.85;;;7.72;;
19830;SDS011;10076;52.008;4.708;2023-05-07T03:32:20;15.48;;;7.97;;
19830;SDS011;10076;52.008;4.708;2023-05-07T03:34:45;13.25;;;8.10;;
19830;SDS011;10076;52.008;4.708;2023-05-07T03:37:10;13.38;;;8.00;;
19830;SDS011;10076;52.008;4.708;2023-05-07T03:39:36;10.80;;;7.70;;
19830;SDS011;10076;52.008;4.708;2023-05-07T03:42:01;10.27;;;7.60;;
19830;SDS011;10076;52.008;4.708;2023-05-07T03:44:26;11.43;;;7.85;;
19830;SDS011;10076;52.008;4.708;2023-05-07T03:46:51;9.75;;;7.20;;
19830;SDS011;10076;52.008;4.708;2023-05-07T03:49:17;13.57;;;8.27;;
19830;SDS011;10076;52.008;4.708;2023-05-07T03:51:42;12.20;;;8.00;;
19830;SDS011;10076;52.008;4.708;2023-05-07T03:54:08;9.13;;;7.15;;
19830;SDS011;10076;52.008;4.708;2023-05-07T03:56:33;11.20;;;7.85;;
19830;SDS011;10076;52.008;4.708;2023-05-07T03:58:59;11.32;;;7.50;;
19830;SDS011;10076;52.008;4.708;2023-05-07T04:01:25;11.70;;;8.27;;
19830;SDS011;10076;52.008;4.708;2023-05-07T04:03:50;10.57;;;7.40;;
19830;SDS011;10076;52.008;4.708;2023-05-07T04:06:16;13.45;;;8.45;;
19830;SDS011;10076;52.008;4.708;2023-05-07T04:08:42;12.35;;;8.23;;
19830;SDS011;10076;52.008;4.708;2023-05-07T04:11:07;10.90;;;7.78;;
19830;SDS011;10076;52.008;4.708;2023-05-07T04:13:32;12.15;;;7.65;;
19830;SDS011;10076;52.008;4.708;2023-05-07T04:15:58;12.10;;;8.10;;
19830;SDS011;10076;52.008;4.708;2023-05-07T04:18:23;10.70;;;7.38;;
19830;SDS011;10076;52.008;4.708;2023-05-07T04:20:48;11.55;;;7.80;;
19830;SDS011;10076;52.008;4.708;2023-05-07T04:23:17;12.18;;;8.15;;
19830;SDS011;10076;52.008;4.708;2023-05-07T04:25:42;11.27;;;8.05;;
19830;SDS011;10076;52.008;4.708;2023-05-07T04:28:07;10.82;;;7.13;;
19830;SDS011;10076;52.008;4.708;2023-05-07T04:30:33;10.82;;;7.70;;
19830;SDS011;10076;52.008;4.708;2023-05-07T04:32:58;11.80;;;7.88;;
19830;SDS011;10076;52.008;4.708;2023-05-07T04:35:23;10.90;;;7.57;;
19830;SDS011;10076;52.008;4.708;2023-05-07T04:37:48;11.98;;;7.15;;
19830;SDS011;10076;52.008;4.708;2023-05-07T04:40:14;12.23;;;8.13;;
19830;SDS011;10076;52.008;4.708;2023-05-07T04:42:39;11.88;;;7.70;;
19830;SDS011;10076;52.008;4.708;2023-05-07T04:45:05;10.55;;;7.47;;
19830;SDS011;10076;52.008;4.708;2023-05-07T04:47:31;9.27;;;7.18;;
19830;SDS011;10076;52.008;4.708;2023-05-07T04:49:57;10.48;;;7.38;;
19830;SDS011;10076;52.008;4.708;2023-05-07T04:52:23;10.13;;;6.90;;
19830;SDS011;10076;52.008;4.708;2023-05-07T04:54:48;10.95;;;7.00;;
19830;SDS011;10076;52.008;4.708;2023-05-07T04:57:13;10.10;;;7.15;;
19830;SDS011;10076;52.008;4.708;2023-05-07T04:59:39;10.95;;;7.57;;
19830;SDS011;10076;52.008;4.708;2023-05-07T05:02:04;10.30;;;6.50;;
19830;SDS011;10076;52.008;4.708;2023-05-07T05:04:29;11.63;;;7.93;;
19830;SDS011;10076;52.008;4.708;2023-05-07T05:06:55;10.77;;;7.50;;
19830;SDS011;10076;52.008;4.708;2023-05-07T05:09:20;11.32;;;7.25;;
19830;SDS011;10076;52.008;4.708;2023-05-07T05:11:46;12.98;;;7.80;;
19830;SDS011;10076;52.008;4.708;2023-05-07T05:14:11;13.52;;;7.95;;
19830;SDS011;10076;52.008;4.708;2023-05-07T05:16:36;11.57;;;8.10;;
19830;SDS011;10076;52.008;4.708;2023-05-07T05:19:02;12.60;;;8.38;;
19830;SDS011;10076;52.008;4.708;2023-05-07T05:21:27;14.93;;;8.35;;
19830;SDS011;10076;52.008;4.708;2023-05-07T05:23:53;13.05;;;8.95;;
19830;SDS011;10076;52.008;4.708;2023-05-07T05:26:18;12.85;;;7.90;;
19830;SDS011;10076;52.008;4.708;2023-05-07T05:28:43;11.57;;;8.20;;
19830;SDS011;10076;52.008;4.708;2023-05-07T05:31:09;13.15;;;8.15;;
19830;SDS011;10076;52.008;4.708;2023-05-07T05:33:35;14.73;;;8.50;;
19830;SDS011;10076;52.008;4.708;2023-05-07T05:36:00;12.52;;;7.78;;
19830;SDS011;10076;52.008;4.708;2023-05-07T05:38:26;12.35;;;8.05;;
19830;SDS011;10076;52.008;4.708;2023-05-07T05:40:51;13.82;;;8.55;;
19830;SDS011;10076;52.008;4.708;2023-05-07T05:43:16;12.77;;;8.18;;
19830;SDS011;10076;52.008;4.708;2023-05-07T05:45:41;13.70;;;8.55;;
19830;SDS011;10076;52.008;4.708;2023-05-07T05:48:07;13.95;;;8.95;;
19830;SDS011;10076;52.008;4.708;2023-05-07T05:50:33;11.30;;;8.48;;
19830;SDS011;10076;52.008;4.708;2023-05-07T05:53:00;13.60;;;9.18;;
19830;SDS011;10076;52.008;4.708;2023-05-07T05:55:26;14.75;;;9.13;;
19830;SDS011;10076;52.008;4.708;2023-05-07T05:57:51;14.70;;;8.93;;
19830;SDS011;10076;52.008;4.708;2023-05-07T06:00:16;13.85;;;9.25;;
19830;SDS011;10076;52.008;4.708;2023-05-07T06:02:42;13.63;;;9.38;;
19830;SDS011;10076;52.008;4.708;2023-05-07T06:05:08;14.85;;;8.73;;
19830;SDS011;10076;52.008;4.708;2023-05-07T06:07:33;13.30;;;9.00;;
19830;SDS011;10076;52.008;4.708;2023-05-07T06:09:59;15.00;;;9.57;;
19830;SDS011;10076;52.008;4.708;2023-05-07T06:12:25;16.30;;;9.50;;
19830;SDS011;10076;52.008;4.708;2023-05-07T06:14:50;14.30;;;9.18;;
19830;SDS011;10076;52.008;4.708;2023-05-07T06:17:16;15.80;;;9.88;;
19830;SDS011;10076;52.008;4.708;2023-05-07T06:19:41;15.60;;;10.15;;
19830;SDS011;10076;52.008;4.708;2023-05-07T06:22:06;15.32;;;10.05;;
19830;SDS011;10076;52.008;4.708;2023-05-07T06:24:32;17.15;;;10.68;;
19830;SDS011;10076;52.008;4.708;2023-05-07T06:26:57;17.10;;;10.52;;
19830;SDS011;10076;52.008;4.708;2023-05-07T06:29:23;17.67;;;10.77;;
19830;SDS011;10076;52.008;4.708;2023-05-07T06:31:50;18.30;;;10.98;;
19830;SDS011;10076;52.008;4.708;2023-05-07T06:34:17;16.40;;;11.02;;
19830;SDS011;10076;52.008;4.708;2023-05-07T06:36:42;17.23;;;11.43;;
19830;SDS011;10076;52.008;4.708;2023-05-07T06:39:07;19.60;;;11.25;;
19830;SDS011;10076;52.008;4.708;2023-05-07T06:41:33;17.75;;;11.60;;
19830;SDS011;10076;52.008;4.708;2023-05-07T06:44:00;18.60;;;10.57;;
19830;SDS011;10076;52.008;4.708;2023-05-07T06:46:25;18.52;;;11.18;;
19830;SDS011;10076;52.008;4.708;2023-05-07T06:48:51;19.58;;;10.85;;
19830;SDS011;10076;52.008;4.708;2023-05-07T06:51:17;20.65;;;10.70;;
19830;SDS011;10076;52.008;4.708;2023-05-07T06:53:42;17.45;;;11.57;;
19830;SDS011;10076;52.008;4.708;2023-05-07T06:56:08;19.00;;;11.32;;
19830;SDS011;10076;52.008;4.708;2023-05-07T06:58:33;18.70;;;11.82;;
19830;SDS011;10076;52.008;4.708;2023-05-07T07:00:59;20.45;;;11.35;;
19830;SDS011;10076;52.008;4.708;2023-05-07T07:03:24;18.95;;;11.85;;
19830;SDS011;10076;52.008;4.708;2023-05-07T07:05:53;18.67;;;11.25;;
19830;SDS011;10076;52.008;4.708;2023-05-07T07:08:18;17.70;;;10.50;;
19830;SDS011;10076;52.008;4.708;2023-05-07T07:10:46;18.75;;;10.90;;
19830;SDS011;10076;52.008;4.708;2023-05-07T07:13:11;17.45;;;11.05;;
19830;SDS011;10076;52.008;4.708;2023-05-07T07:15:36;16.92;;;10.88;;
19830;SDS011;10076;52.008;4.708;2023-05-07T07:18:02;18.77;;;11.70;;
19830;SDS011;10076;52.008;4.708;2023-05-07T07:20:27;20.98;;;10.93;;
19830;SDS011;10076;52.008;4.708;2023-05-07T07:22:52;19.02;;;12.07;;
19830;SDS011;10076;52.008;4.708;2023-05-07T07:25:18;21.33;;;12.90;;
19830;SDS011;10076;52.008;4.708;2023-05-07T07:27:43;19.23;;;11.88;;
19830;SDS011;10076;52.008;4.708;2023-05-07T07:30:08;21.92;;;13.02;;
19830;SDS011;10076;52.008;4.708;2023-05-07T07:32:34;23.95;;;13.23;;
19830;SDS011;10076;52.008;4.708;2023-05-07T07:34:59;21.35;;;13.10;;
19830;SDS011;10076;52.008;4.708;2023-05-07T07:37:25;20.65;;;12.95;;
19830;SDS011;10076;52.008;4.708;2023-05-07T07:39:50;18.52;;;12.43;;
19830;SDS011;10076;52.008;4.708;2023-05-07T07:42:16;21.48;;;13.10;;
19830;SDS011;10076;52.008;4.708;2023-05-07T07:44:41;21.85;;;12.43;;
19830;SDS011;10076;52.008;4.708;2023-05-07T07:47:06;22.00;;;13.23;;
19830;SDS011;10076;52.008;4.708;2023-05-07T07:49:32;18.52;;;12.68;;
19830;SDS011;10076;52.008;4.708;2023-05-07T07:51:57;21.25;;;11.70;;
19830;SDS011;10076;52.008;4.708;2023-05-07T07:54:24;19.80;;;12.38;;
19830;SDS011;10076;52.008;4.708;2023-05-07T07:56:50;20.73;;;12.55;;
19830;SDS011;10076;52.008;4.708;2023-05-07T07:59:15;20.45;;;12.15;;
19830;SDS011;10076;52.008;4.708;2023-05-07T08:01:43;22.67;;;13.15;;
19830;SDS011;10076;52.008;4.708;2023-05-07T08:04:09;23.40;;;12.73;;
19830;SDS011;10076;52.008;4.708;2023-05-07T08:06:35;21.15;;;13.48;;
19830;SDS011;10076;52.008;4.708;2023-05-07T08:09:00;20.50;;;12.02;;
19830;SDS011;10076;52.008;4.708;2023-05-07T08:11:26;19.23;;;12.27;;
19830;SDS011;10076;52.008;4.708;2023-05-07T08:13:51;18.90;;;11.50;;
19830;SDS011;10076;52.008;4.708;2023-05-07T08:16:17;17.85;;;11.00;;
19830;SDS011;10076;52.008;4.708;2023-05-07T08:18:42;18.70;;;12.30;;
19830;SDS011;10076;52.008;4.708;2023-05-07T08:21:07;17.33;;;11.45;;
19830;SDS011;10076;52.008;4.708;2023-05-07T08:23:33;17.80;;;10.50;;
19830;SDS011;10076;52.008;4.708;2023-05-07T08:25:59;17.45;;;10.38;;
19830;SDS011;10076;52.008;4.708;2023-05-07T08:28:25;17.50;;;11.38;;
19830;SDS011;10076;52.008;4.708;2023-05-07T08:30:50;16.45;;;10.00;;
19830;SDS011;10076;52.008;4.708;2023-05-07T08:33:16;15.80;;;10.18;;
19830;SDS011;10076;52.008;4.708;2023-05-07T08:35:41;15.05;;;10.23;;
19830;SDS011;10076;52.008;4.708;2023-05-07T08:38:06;18.52;;;10.82;;
19830;SDS011;10076;52.008;4.708;2023-05-07T08:40:34;17.20;;;9.98;;
19830;SDS011;10076;52.008;4.708;2023-05-07T08:43:02;13.32;;;9.38;;
19830;SDS011;10076;52.008;4.708;2023-05-07T08:45:30;15.90;;;9.88;;
19830;SDS011;10076;52.008;4.708;2023-05-07T08:48:02;14.80;;;9.95;;
19830;SDS011;10076;52.008;4.708;2023-05-07T08:50:30;15.68;;;9.32;;
19830;SDS011;10076;52.008;4.708;2023-05-07T08:52:55;11.43;;;8.48;;
19830;SDS011;10076;52.008;4.708;2023-05-07T08:55:22;12.45;;;8.10;;
19830;SDS011;10076;52.008;4.708;2023-05-07T08:57:48;12.75;;;8.05;;
19830;SDS011;10076;52.008;4.708;2023-05-07T09:00:15;8.98;;;6.57;;
19830;SDS011;10076;52.008;4.708;2023-05-07T09:02:40;9.77;;;6.45;;
19830;SDS011;10076;52.008;4.708;2023-05-07T09:05:05;10.70;;;7.30;;
19830;SDS011;10076;52.008;4.708;2023-05-07T09:07:31;12.07;;;8.07;;
19830;SDS011;10076;52.008;4.708;2023-05-07T09:09:57;10.73;;;7.70;;
19830;SDS011;10076;52.008;4.708;2023-05-07T09:12:23;10.77;;;7.63;;
19830;SDS011;10076;52.008;4.708;2023-05-07T09:14:48;11.18;;;7.53;;
19830;SDS011;10076;52.008;4.708;2023-05-07T09:17:15;11.95;;;7.75;;
19830;SDS011;10076;52.008;4.708;2023-05-07T09:19:41;11.57;;;7.75;;
19830;SDS011;10076;52.008;4.708;2023-05-07T09:22:09;10.82;;;7.53;;
19830;SDS011;10076;52.008;4.708;2023-05-07T09:24:34;12.00;;;6.97;;
19830;SDS011;10076;52.008;4.708;2023-05-07T09:27:02;12.25;;;7.60;;
19830;SDS011;10076;52.008;4.708;2023-05-07T09:29:33;12.65;;;8.10;;
19830;SDS011;10076;52.008;4.708;2023-05-07T09:32:06;13.50;;;8.38;;
19830;SDS011;10076;52.008;4.708;2023-05-07T09:34:33;11.30;;;7.45;;
19830;SDS011;10076;52.008;4.708;2023-05-07T09:37:02;10.88;;;7.82;;
19830;SDS011;10076;52.008;4.708;2023-05-07T09:39:38;11.55;;;7.47;;
19830;SDS011;10076;52.008;4.708;2023-05-07T09:42:07;9.88;;;7.20;;
19830;SDS011;10076;52.008;4.708;2023-05-07T09:44:34;9.80;;;7.50;;
19830;SDS011;10076;52.008;4.708;2023-05-07T09:47:00;9.30;;;6.55;;
19830;SDS011;10076;52.008;4.708;2023-05-07T09:49:29;7.80;;;6.10;;
19830;SDS011;10076;52.008;4.708;2023-05-07T09:51:55;9.75;;;6.82;;
19830;SDS011;10076;52.008;4.708;2023-05-07T09:54:21;8.60;;;6.97;;
19830;SDS011;10076;52.008;4.708;2023-05-07T09:56:50;10.13;;;6.88;;
19830;SDS011;10076;52.008;4.708;2023-05-07T09:59:17;11.35;;;7.10;;
19830;SDS011;10076;52.008;4.708;2023-05-07T10:01:43;8.63;;;6.13;;
19830;SDS011;10076;52.008;4.708;2023-05-07T10:04:10;14.48;;;7.88;;
19830;SDS011;10076;52.008;4.708;2023-05-07T10:06:36;15.48;;;8.93;;
19830;SDS011;10076;52.008;4.708;2023-05-07T10:09:02;11.65;;;6.38;;
19830;SDS011;10076;52.008;4.708;2023-05-07T10:11:31;8.20;;;5.25;;
19830;SDS011;10076;52.008;4.708;2023-05-07T10:14:00;8.43;;;4.88;;
19830;SDS011;10076;52.008;4.708;2023-05-07T10:16:27;6.40;;;4.60;;
19830;SDS011;10076;52.008;4.708;2023-05-07T10:18:57;7.13;;;4.80;;
19830;SDS011;10076;52.008;4.708;2023-05-07T10:21:23;6.97;;;4.95;;
19830;SDS011;10076;52.008;4.708;2023-05-07T10:23:49;9.93;;;4.90;;
19830;SDS011;10076;52.008;4.708;2023-05-07T10:26:17;8.40;;;5.28;;
19830;SDS011;10076;52.008;4.708;2023-05-07T10:28:43;9.10;;;5.00;;
19830;SDS011;10076;52.008;4.708;2023-05-07T10:31:18;7.50;;;5.93;;
19830;SDS011;10076;52.008;4.708;2023-05-07T10:33:48;9.60;;;4.93;;
19830;SDS011;10076;52.008;4.708;2023-05-07T10:36:17;8.25;;;4.97;;
19830;SDS011;10076;52.008;4.708;2023-05-07T10:38:45;6.75;;;5.03;;
19830;SDS011;10076;52.008;4.708;2023-05-07T10:41:11;6.03;;;5.10;;
19830;SDS011;10076;52.008;4.708;2023-05-07T10:43:40;7.28;;;4.88;;
19830;SDS011;10076;52.008;4.708;2023-05-07T10:46:16;8.52;;;5.28;;
19830;SDS011;10076;52.008;4.708;2023-05-07T10:49:06;7.38;;;4.65;;
19830;SDS011;10076;52.008;4.708;2023-05-07T10:51:32;7.72;;;5.00;;
19830;SDS011;10076;52.008;4.708;2023-05-07T10:54:31;6.70;;;4.70;;
19830;SDS011;10076;52.008;4.708;2023-05-07T10:56:50;4.85;;;3.90;;
19830;SDS011;10076;52.008;4.708;2023-05-07T11:04:28;6.65;;;4.57;;
19830;SDS011;10076;52.008;4.708;2023-05-07T11:07:29;7.13;;;5.07;;
19830;SDS011;10076;52.008;4.708;2023-05-07T11:12:18;7.43;;;4.93;;
19830;SDS011;10076;52.008;4.708;2023-05-07T11:15:12;5.75;;;3.58;;
19830;SDS011;10076;52.008;4.708;2023-05-07T11:17:53;5.13;;;4.03;;
19830;SDS011;10076;52.008;4.708;2023-05-07T11:20:20;7.95;;;4.15;;
19830;SDS011;10076;52.008;4.708;2023-05-07T11:22:46;7.40;;;4.07;;
19830;SDS011;10076;52.008;4.708;2023-05-07T11:25:16;6.65;;;5.22;;
19830;SDS011;10076;52.008;4.708;2023-05-07T11:27:43;5.10;;;4.13;;
19830;SDS011;10076;52.008;4.708;2023-05-07T11:30:09;6.07;;;4.32;;
19830;SDS011;10076;52.008;4.708;2023-05-07T11:32:36;6.88;;;4.50;;
19830;SDS011;10076;52.008;4.708;2023-05-07T11:35:01;6.00;;;4.88;;
19830;SDS011;10076;52.008;4.708;2023-05-07T11:37:27;8.43;;;5.85;;
19830;SDS011;10076;52.008;4.708;2023-05-07T11:40:07;9.15;;;5.95;;
19830;SDS011;10076;52.008;4.708;2023-05-07T11:42:34;7.55;;;5.88;;
19830;SDS011;10076;52.008;4.708;2023-05-07T11:45:02;9.77;;;5.88;;
19830;SDS011;10076;52.008;4.708;2023-05-07T11:47:31;7.13;;;5.63;;
19830;SDS011;10076;52.008;4.708;2023-05-07T11:49:57;10.07;;;5.75;;
19830;SDS011;10076;52.008;4.708;2023-05-07T11:52:28;9.68;;;6.55;;
19830;SDS011;10076;52.008;4.708;2023-05-07T11:54:54;9.35;;;6.47;;
19830;SDS011;10076;52.008;4.708;2023-05-07T11:57:24;11.07;;;6.20;;
19830;SDS011;10076;52.008;4.708;2023-05-07T11:59:54;7.65;;;6.07;;
19830;SDS011;10076;52.008;4.708;2023-05-07T12:02:19;9.32;;;6.55;;
19830;SDS011;10076;52.008;4.708;2023-05-07T12:04:45;9.00;;;6.43;;
19830;SDS011;10076;52.008;4.708;2023-05-07T12:07:14;10.23;;;6.28;;
19830;SDS011;10076;52.008;4.708;2023-05-07T12:09:40;8.77;;;6.85;;
19830;SDS011;10076;52.008;4.708;2023-05-07T12:12:06;10.27;;;6.53;;
19830;SDS011;10076;52.008;4.708;2023-05-07T12:14:32;8.30;;;5.50;;
19830;SDS011;10076;52.008;4.708;2023-05-07T12:16:57;7.45;;;6.47;;
19830;SDS011;10076;52.008;4.708;2023-05-07T12:19:24;7.63;;;6.38;;
19830;SDS011;10076;52.008;4.708;2023-05-07T12:21:49;7.28;;;5.80;;
19830;SDS011;10076;52.008;4.708;2023-05-07T12:24:15;8.15;;;6.28;;
19830;SDS011;10076;52.008;4.708;2023-05-07T12:26:41;9.63;;;6.05;;
19830;SDS011;10076;52.008;4.708;2023-05-07T12:29:06;7.57;;;6.40;;
19830;SDS011;10076;52.008;4.708;2023-05-07T12:31:32;8.73;;;6.07;;
19830;SDS011;10076;52.008;4.708;2023-05-07T12:33:57;9.77;;;7.03;;
19830;SDS011;10076;52.008;4.708;2023-05-07T12:36:23;9.50;;;6.68;;
19830;SDS011;10076;52.008;4.708;2023-05-07T12:38:51;8.63;;;6.70;;
19830;SDS011;10076;52.008;4.708;2023-05-07T12:41:16;10.65;;;6.82;;
19830;SDS011;10076;52.008;4.708;2023-05-07T12:43:46;9.07;;;6.95;;
19830;SDS011;10076;52.008;4.708;2023-05-07T12:46:11;11.45;;;6.13;;
19830;SDS011;10076;52.008;4.708;2023-05-07T12:48:43;9.68;;;6.70;;
19830;SDS011;10076;52.008;4.708;2023-05-07T12:51:11;10.93;;;7.88;;
19830;SDS011;10076;52.008;4.708;2023-05-07T12:53:41;13.23;;;6.80;;
19830;SDS011;10076;52.008;4.708;2023-05-07T12:56:07;9.52;;;7.32;;
19830;SDS011;10076;52.008;4.708;2023-05-07T12:58:34;9.57;;;6.85;;
19830;SDS011;10076;52.008;4.708;2023-05-07T13:01:03;10.70;;;6.97;;
19830;SDS011;10076;52.008;4.708;2023-05-07T13:03:31;9.70;;;7.10;;
19830;SDS011;10076;52.008;4.708;2023-05-07T13:05:58;14.07;;;7.50;;
19830;SDS011;10076;52.008;4.708;2023-05-07T13:08:29;10.70;;;7.30;;
19830;SDS011;10076;52.008;4.708;2023-05-07T13:11:00;10.77;;;7.50;;
19830;SDS011;10076;52.008;4.708;2023-05-07T13:13:30;10.25;;;6.88;;
19830;SDS011;10076;52.008;4.708;2023-05-07T13:15:56;11.13;;;7.15;;
19830;SDS011;10076;52.008;4.708;2023-05-07T13:18:21;10.82;;;7.30;;
19830;SDS011;10076;52.008;4.708;2023-05-07T13:20:49;11.48;;;7.60;;
19830;SDS011;10076;52.008;4.708;2023-05-07T13:23:15;10.02;;;7.22;;
19830;SDS011;10076;52.008;4.708;2023-05-07T13:25:40;10.60;;;7.20;;
19830;SDS011;10076;52.008;4.708;2023-05-07T13:28:05;11.77;;;6.65;;
19830;SDS011;10076;52.008;4.708;2023-05-07T13:30:31;9.95;;;5.88;;
19830;SDS011;10076;52.008;4.708;2023-05-07T13:32:56;7.35;;;5.38;;
19830;SDS011;10076;52.008;4.708;2023-05-07T13:35:21;9.23;;;5.60;;
19830;SDS011;10076;52.008;4.708;2023-05-07T13:37:47;8.60;;;6.20;;
19830;SDS011;10076;52.008;4.708;2023-05-07T13:40:16;11.38;;;7.85;;
19830;SDS011;10076;52.008;4.708;2023-05-07T13:42:42;7.78;;;6.25;;
19830;SDS011;10076;52.008;4.708;2023-05-07T13:45:07;8.15;;;5.75;;
19830;SDS011;10076;52.008;4.708;2023-05-07T13:47:34;10.95;;;7.28;;
19830;SDS011;10076;52.008;4.708;2023-05-07T13:49:59;10.68;;;7.50;;
19830;SDS011;10076;52.008;4.708;2023-05-07T13:52:24;13.77;;;8.25;;
19830;SDS011;10076;52.008;4.708;2023-05-07T13:54:50;10.38;;;7.70;;
19830;SDS011;10076;52.008;4.708;2023-05-07T13:57:17;11.57;;;7.40;;
19830;SDS011;10076;52.008;4.708;2023-05-07T13:59:42;13.18;;;7.80;;
19830;SDS011;10076;52.008;4.708;2023-05-07T14:02:08;11.63;;;7.70;;
19830;SDS011;10076;52.008;4.708;2023-05-07T14:04:34;15.82;;;9.27;;
19830;SDS011;10076;52.008;4.708;2023-05-07T14:06:59;14.43;;;9.55;;
19830;SDS011;10076;52.008;4.708;2023-05-07T14:09:25;12.63;;;8.82;;
19830;SDS011;10076;52.008;4.708;2023-05-07T14:11:50;13.20;;;8.85;;
19830;SDS011;10076;52.008;4.708;2023-05-07T14:14:19;14.00;;;8.98;;
19830;SDS011;10076;52.008;4.708;2023-05-07T14:16:44;16.70;;;9.52;;
19830;SDS011;10076;52.008;4.708;2023-05-07T14:19:10;14.35;;;8.80;;
19830;SDS011;10076;52.008;4.708;2023-05-07T14:21:36;15.20;;;9.02;;
19830;SDS011;10076;52.008;4.708;2023-05-07T14:24:02;22.40;;;10.35;;
19830;SDS011;10076;52.008;4.708;2023-05-07T14:26:27;19.65;;;8.70;;
19830;SDS011;10076;52.008;4.708;2023-05-07T14:28:53;15.73;;;9.23;;
19830;SDS011;10076;52.008;4.708;2023-05-07T14:31:20;13.20;;;8.90;;
19830;SDS011;10076;52.008;4.708;2023-05-07T14:33:45;15.95;;;9.10;;
19830;SDS011;10076;52.008;4.708;2023-05-07T14:36:11;13.10;;;8.95;;